createdAt,value
2019-04-30T00:00:39.897Z,11.90
2019-04-30T00:03:11.603Z,12.00
2019-04-30T00:05:41.945Z,11.90
2019-04-30T00:08:11.183Z,11.90
2019-04-30T00:10:41.382Z,11.90
2019-04-30T00:13:14.536Z,11.90
2019-04-30T00:15:40.613Z,11.80
2019-04-30T00:18:09.293Z,11.80
2019-04-30T00:20:38.771Z,11.70
2019-04-30T00:23:07.573Z,11.70
2019-04-30T00:25:38.180Z,11.90
2019-04-30T00:28:08.715Z,11.90
2019-04-30T00:30:39.295Z,11.90
2019-04-30T00:33:09.317Z,11.80
2019-04-30T00:35:37.957Z,11.70
2019-04-30T00:38:06.915Z,11.80
2019-04-30T00:40:35.451Z,11.80
2019-04-30T00:43:08.062Z,11.80
2019-04-30T00:45:35.330Z,11.80
2019-04-30T00:48:05.864Z,11.80
2019-04-30T00:50:37.178Z,11.70
2019-04-30T00:53:12.226Z,11.70
2019-04-30T00:55:40.261Z,11.60
2019-04-30T00:58:07.644Z,11.60
2019-04-30T01:00:37.807Z,11.70
2019-04-30T01:03:17.126Z,11.60
2019-04-30T01:05:49.072Z,11.60
2019-04-30T01:08:21.049Z,11.80
2019-04-30T01:10:48.755Z,11.90
2019-04-30T01:13:19.066Z,11.80
2019-04-30T01:15:49.037Z,11.90
2019-04-30T01:18:19.280Z,11.90
2019-04-30T01:20:48.723Z,11.80
2019-04-30T01:23:19.400Z,11.70
2019-04-30T01:25:51.315Z,11.60
2019-04-30T01:28:22.904Z,11.70
2019-04-30T01:30:53.874Z,11.60
2019-04-30T01:33:20.235Z,11.70
2019-04-30T01:35:48.869Z,11.80
2019-04-30T01:38:18.921Z,11.80
2019-04-30T01:40:51.069Z,11.60
2019-04-30T01:43:23.189Z,11.50
2019-04-30T01:45:50.966Z,11.40
2019-04-30T01:48:20.713Z,11.60
2019-04-30T01:50:49.384Z,11.80
2019-04-30T01:53:19.546Z,11.80
2019-04-30T01:55:55.576Z,11.90
2019-04-30T01:58:29.970Z,11.90
2019-04-30T02:00:59.372Z,11.80
2019-04-30T02:03:29.854Z,11.80
2019-04-30T02:05:59.664Z,11.80
2019-04-30T02:08:29.532Z,11.60
2019-04-30T02:11:02.435Z,11.60
2019-04-30T02:13:34.284Z,11.50
2019-04-30T02:16:01.784Z,11.50
2019-04-30T02:18:30.552Z,11.50
2019-04-30T02:20:59.628Z,11.50
2019-04-30T02:23:29.681Z,11.40
2019-04-30T02:26:00.621Z,11.30
2019-04-30T02:28:29.476Z,11.40
2019-04-30T02:31:00.285Z,11.40
2019-04-30T02:33:30.758Z,11.50
2019-04-30T02:36:03.694Z,11.60
2019-04-30T02:38:33.464Z,11.40
2019-04-30T02:41:03.302Z,11.30
2019-04-30T02:43:36.683Z,11.40
2019-04-30T02:46:06.560Z,11.30
2019-04-30T02:48:39.611Z,11.40
2019-04-30T02:51:12.332Z,11.50
2019-04-30T02:53:52.935Z,11.60
2019-04-30T02:56:26.567Z,11.60
2019-04-30T02:58:53.701Z,11.70
2019-04-30T03:01:22.402Z,11.50
2019-04-30T03:03:50.956Z,11.40
2019-04-30T03:06:23.182Z,11.30
2019-04-30T03:08:51.126Z,11.30
2019-04-30T03:11:20.851Z,11.30
2019-04-30T03:13:49.820Z,11.50
2019-04-30T03:16:20.691Z,11.50
2019-04-30T03:18:54.246Z,11.40
2019-04-30T03:21:40.619Z,11.20
2019-04-30T03:24:12.516Z,11.20
2019-04-30T03:26:41.089Z,11.40
2019-04-30T03:29:11.357Z,11.50
2019-04-30T03:31:44.386Z,11.30
2019-04-30T03:34:17.528Z,11.30
2019-04-30T03:36:42.238Z,11.20
2019-04-30T03:39:11.393Z,11.30
2019-04-30T03:41:41.729Z,11.40
2019-04-30T03:44:20.936Z,11.50
2019-04-30T03:46:40.651Z,11.50
2019-04-30T03:49:10.627Z,11.50
2019-04-30T03:51:40.290Z,11.70
2019-04-30T03:54:10.673Z,11.50
2019-04-30T03:56:40.608Z,11.50
2019-04-30T03:59:10.449Z,11.40
2019-04-30T04:01:59.560Z,11.30
2019-04-30T04:04:30.926Z,11.00
2019-04-30T04:07:04.146Z,11.00
2019-04-30T04:09:39.977Z,11.10
2019-04-30T04:12:30.156Z,11.30
2019-04-30T04:15:00.711Z,11.30
2019-04-30T04:17:31.064Z,11.30
2019-04-30T04:19:59.802Z,11.30
2019-04-30T04:22:30.669Z,11.20
2019-04-30T04:25:00.050Z,11.40
2019-04-30T04:27:30.291Z,11.50
2019-04-30T04:30:01.293Z,11.40
2019-04-30T04:32:31.393Z,11.10
2019-04-30T04:35:01.641Z,11.20
2019-04-30T04:37:30.596Z,11.50
2019-04-30T04:40:00.836Z,11.50
2019-04-30T04:42:32.714Z,11.20
2019-04-30T04:44:59.814Z,11.20
2019-04-30T04:47:30.712Z,11.30
2019-04-30T04:50:00.623Z,11.40
2019-04-30T04:52:31.487Z,11.10
2019-04-30T04:55:00.394Z,11.00
2019-04-30T04:57:30.476Z,11.00
2019-04-30T05:00:06.386Z,11.00
2019-04-30T05:02:46.411Z,11.10
2019-04-30T05:05:15.625Z,10.90
2019-04-30T05:07:44.156Z,11.00
2019-04-30T05:10:15.778Z,11.30
2019-04-30T05:12:50.637Z,11.20
2019-04-30T05:15:19.312Z,11.20
2019-04-30T05:17:49.274Z,11.30
2019-04-30T05:20:19.454Z,11.40
2019-04-30T05:22:48.901Z,11.40
2019-04-30T05:25:18.639Z,11.60
2019-04-30T05:27:48.973Z,11.70
2019-04-30T05:30:19.900Z,11.50
2019-04-30T05:32:53.807Z,11.50
2019-04-30T05:35:22.277Z,11.50
2019-04-30T05:37:52.359Z,11.40
2019-04-30T05:40:22.589Z,11.40
2019-04-30T05:42:51.234Z,11.60
2019-04-30T05:45:22.529Z,11.50
2019-04-30T05:47:51.212Z,11.20
2019-04-30T05:50:24.266Z,11.10
2019-04-30T05:52:54.399Z,11.10
2019-04-30T05:55:23.827Z,11.00
2019-04-30T05:57:56.568Z,11.20
2019-04-30T06:00:24.309Z,11.40
2019-04-30T06:02:56.053Z,11.50
2019-04-30T06:05:25.711Z,11.60
2019-04-30T06:07:55.480Z,11.60
2019-04-30T06:10:34.604Z,11.50
2019-04-30T06:13:19.633Z,11.50
2019-04-30T06:15:53.831Z,11.60
2019-04-30T06:18:23.441Z,11.50
2019-04-30T06:20:52.208Z,11.60
2019-04-30T06:23:22.503Z,11.70
2019-04-30T06:26:00.451Z,11.80
2019-04-30T06:28:25.690Z,11.70
2019-04-30T06:30:54.672Z,11.70
2019-04-30T06:33:23.315Z,11.50
2019-04-30T06:35:52.733Z,11.80
2019-04-30T06:38:21.337Z,11.80
2019-04-30T06:40:49.886Z,11.90
2019-04-30T06:43:19.698Z,11.80
2019-04-30T06:45:50.914Z,11.50
2019-04-30T06:48:19.923Z,11.80
2019-04-30T06:50:49.274Z,12.00
2019-04-30T06:53:19.284Z,12.00
2019-04-30T06:55:49.236Z,12.00
2019-04-30T06:58:20.244Z,12.10
2019-04-30T07:00:49.670Z,12.00
2019-04-30T07:03:19.177Z,12.10
2019-04-30T07:05:48.843Z,11.80
2019-04-30T07:08:42.492Z,12.00
2019-04-30T07:11:21.448Z,12.40
2019-04-30T07:13:52.309Z,12.30
2019-04-30T07:16:21.081Z,12.10
2019-04-30T07:18:49.646Z,12.30
2019-04-30T07:21:19.892Z,12.30
2019-04-30T07:23:48.608Z,12.20
2019-04-30T07:26:19.815Z,12.10
2019-04-30T07:28:52.745Z,12.20
2019-04-30T07:31:19.503Z,12.30
2019-04-30T07:33:51.507Z,12.00
2019-04-30T07:36:19.526Z,12.30
2019-04-30T07:38:54.554Z,11.90
2019-04-30T07:41:19.013Z,12.00
2019-04-30T07:43:49.351Z,12.20
2019-04-30T07:46:19.950Z,12.10
2019-04-30T07:48:50.224Z,12.00
2019-04-30T07:51:21.771Z,12.00
2019-04-30T07:53:53.268Z,11.80
2019-04-30T07:56:34.935Z,11.90
2019-04-30T07:59:00.677Z,12.10
2019-04-30T08:01:29.491Z,12.30
2019-04-30T08:04:14.630Z,12.30
2019-04-30T08:06:43.154Z,12.10
2019-04-30T08:09:11.738Z,12.10
2019-04-30T08:11:43.500Z,12.20
2019-04-30T08:14:10.508Z,12.00
2019-04-30T08:16:39.108Z,12.10
2019-04-30T08:19:09.109Z,12.00
2019-04-30T08:21:38.855Z,12.00
2019-04-30T08:24:08.931Z,12.00
2019-04-30T08:26:39.642Z,12.00
2019-04-30T08:29:09.690Z,12.30
2019-04-30T08:31:40.635Z,12.30
2019-04-30T08:34:10.621Z,12.50
2019-04-30T08:36:38.827Z,12.30
2019-04-30T08:39:09.575Z,12.40
2019-04-30T08:41:39.444Z,12.10
2019-04-30T08:44:09.432Z,12.00
2019-04-30T08:46:38.741Z,11.80
2019-04-30T08:49:09.253Z,11.90
2019-04-30T08:51:38.882Z,11.90
2019-04-30T08:54:09.535Z,11.80
2019-04-30T08:56:38.790Z,11.90
2019-04-30T08:59:08.723Z,11.70
2019-04-30T09:01:38.727Z,11.50
2019-04-30T09:04:07.701Z,11.50
2019-04-30T09:06:38.494Z,11.60
2019-04-30T09:09:11.315Z,11.60
2019-04-30T09:11:52.008Z,11.60
2019-04-30T09:14:10.406Z,11.70
2019-04-30T09:16:39.350Z,11.80
2019-04-30T09:19:09.656Z,11.90
2019-04-30T09:21:40.174Z,11.90
2019-04-30T09:24:09.557Z,12.00
2019-04-30T09:26:39.149Z,11.80
2019-04-30T09:29:09.345Z,11.90
2019-04-30T09:31:40.818Z,12.00
2019-04-30T09:34:15.221Z,12.10
2019-04-30T09:36:39.145Z,12.10
2019-04-30T09:39:08.959Z,12.10
2019-04-30T09:41:40.960Z,12.00
2019-04-30T09:44:09.891Z,12.10
2019-04-30T09:46:38.897Z,12.20
2019-04-30T09:49:09.537Z,12.10
2019-04-30T09:51:39.374Z,12.30
2019-04-30T09:54:11.907Z,12.20
2019-04-30T09:56:39.316Z,12.10
2019-04-30T09:59:09.110Z,12.10
2019-04-30T10:01:37.708Z,12.10
2019-04-30T10:04:06.816Z,12.20
2019-04-30T10:06:39.549Z,12.10
2019-04-30T10:09:09.659Z,12.10
2019-04-30T10:11:59.444Z,12.20
2019-04-30T10:14:29.687Z,12.10
2019-04-30T10:17:05.683Z,12.20
2019-04-30T10:19:39.240Z,12.60
2019-04-30T10:22:08.953Z,13.00
2019-04-30T10:24:39.214Z,12.90
2019-04-30T10:27:12.948Z,12.70
2019-04-30T10:29:39.532Z,12.60
2019-04-30T10:32:08.791Z,12.80
2019-04-30T10:34:37.442Z,12.80
2019-04-30T10:37:06.007Z,12.80
2019-04-30T10:39:34.575Z,13.00
2019-04-30T10:42:03.711Z,13.00
2019-04-30T10:44:32.216Z,13.00
2019-04-30T10:47:00.880Z,12.70
2019-04-30T10:49:29.397Z,12.80
2019-04-30T10:51:59.404Z,13.20
2019-04-30T10:54:29.044Z,13.10
2019-04-30T10:57:08.664Z,12.90
2019-04-30T10:59:36.272Z,12.80
2019-04-30T11:02:05.178Z,13.10
2019-04-30T11:04:33.774Z,13.10
2019-04-30T11:07:02.551Z,13.30
2019-04-30T11:09:32.671Z,13.10
2019-04-30T11:12:03.227Z,13.00
2019-04-30T11:14:31.955Z,13.10
2019-04-30T11:17:00.715Z,13.20
2019-04-30T11:19:31.290Z,13.30
2019-04-30T11:22:00.772Z,13.20
2019-04-30T11:24:36.642Z,13.30
2019-04-30T11:27:00.935Z,13.20
2019-04-30T11:29:30.872Z,13.20
2019-04-30T11:32:01.759Z,13.10
2019-04-30T11:34:30.342Z,13.00
2019-04-30T11:36:59.819Z,13.00
2019-04-30T11:39:29.794Z,13.10
2019-04-30T11:41:58.401Z,13.00
2019-04-30T11:44:31.281Z,12.80
2019-04-30T11:47:00.773Z,13.20
2019-04-30T11:49:29.293Z,13.30
2019-04-30T11:51:57.949Z,13.10
2019-04-30T11:54:26.516Z,12.80
2019-04-30T11:56:55.070Z,13.10
2019-04-30T11:59:24.171Z,13.30
2019-04-30T12:01:54.448Z,13.30
2019-04-30T12:04:23.101Z,13.10
2019-04-30T12:06:53.018Z,13.20
2019-04-30T12:09:41.447Z,13.00
2019-04-30T12:12:10.057Z,13.30
2019-04-30T12:14:39.568Z,13.60
2019-04-30T12:17:09.679Z,13.40
2019-04-30T12:19:40.804Z,13.30
2019-04-30T12:22:09.044Z,13.10
2019-04-30T12:24:38.813Z,13.40
2019-04-30T12:27:07.937Z,13.70
2019-04-30T12:29:39.756Z,13.60
2019-04-30T12:32:08.531Z,13.70
2019-04-30T12:34:41.496Z,13.50
2019-04-30T12:37:10.784Z,13.50
2019-04-30T12:39:39.533Z,13.80
2019-04-30T12:42:08.764Z,14.00
2019-04-30T12:44:39.849Z,13.90
2019-04-30T12:47:09.656Z,14.00
2019-04-30T12:50:00.943Z,13.90
2019-04-30T12:52:39.891Z,14.00
2019-04-30T12:55:15.635Z,13.90
2019-04-30T12:57:58.132Z,13.70
2019-04-30T13:00:19.495Z,13.60
2019-04-30T13:02:49.905Z,13.70
2019-04-30T13:05:18.886Z,13.80
2019-04-30T13:07:49.657Z,14.20
2019-04-30T13:10:18.532Z,14.40
2019-04-30T13:12:47.824Z,14.50
2019-04-30T13:15:17.158Z,14.60
2019-04-30T13:17:45.747Z,14.40
2019-04-30T13:20:20.979Z,14.20
2019-04-30T13:22:44.900Z,14.30
2019-04-30T13:25:13.649Z,14.60
2019-04-30T13:27:46.898Z,14.50
2019-04-30T13:30:22.939Z,14.30
2019-04-30T13:33:02.226Z,14.20
2019-04-30T13:35:30.748Z,14.10
2019-04-30T13:38:00.949Z,14.30
2019-04-30T13:40:31.229Z,13.90
2019-04-30T13:43:01.534Z,14.00
2019-04-30T13:45:30.177Z,14.20
2019-04-30T13:47:58.953Z,14.10
2019-04-30T13:50:29.127Z,14.10
2019-04-30T13:52:58.783Z,14.10
2019-04-30T13:55:29.310Z,14.10
2019-04-30T13:57:57.842Z,14.10
2019-04-30T14:00:29.713Z,14.20
2019-04-30T14:03:00.844Z,14.20
2019-04-30T14:05:29.601Z,14.30
2019-04-30T14:08:11.696Z,14.30
2019-04-30T14:10:41.305Z,14.00
2019-04-30T14:13:10.616Z,14.00
2019-04-30T14:15:40.613Z,14.00
2019-04-30T14:18:09.422Z,14.10
2019-04-30T14:20:38.201Z,13.90
2019-04-30T14:23:08.562Z,13.90
2019-04-30T14:25:38.083Z,13.90
2019-04-30T14:28:06.721Z,14.00
2019-04-30T14:30:35.265Z,14.00
2019-04-30T14:33:03.847Z,14.00
2019-04-30T14:35:32.808Z,14.10
2019-04-30T14:38:01.922Z,14.10
2019-04-30T14:40:30.957Z,14.10
2019-04-30T14:43:02.087Z,14.40
2019-04-30T14:45:32.849Z,14.20
2019-04-30T14:48:10.983Z,14.20
2019-04-30T14:50:39.617Z,14.10
2019-04-30T14:53:12.477Z,14.10
2019-04-30T14:55:44.360Z,13.90
2019-04-30T14:58:20.276Z,13.80
2019-04-30T15:00:49.759Z,13.80
2019-04-30T15:03:21.425Z,14.00
2019-04-30T15:05:51.707Z,14.20
2019-04-30T15:08:21.986Z,14.20
2019-04-30T15:10:50.542Z,14.20
2019-04-30T15:13:19.584Z,14.30
2019-04-30T15:15:49.166Z,14.30
2019-04-30T15:18:19.201Z,14.50
2019-04-30T15:20:49.771Z,14.20
2019-04-30T15:23:22.745Z,14.20
2019-04-30T15:25:51.256Z,14.10
2019-04-30T15:28:19.771Z,14.10
2019-04-30T15:30:48.822Z,14.10
2019-04-30T15:33:25.196Z,13.90
2019-04-30T15:35:53.748Z,13.80
2019-04-30T15:38:23.898Z,14.00
2019-04-30T15:40:52.425Z,13.70
2019-04-30T15:43:21.016Z,13.90
2019-04-30T15:45:49.610Z,13.90
2019-04-30T15:48:19.634Z,13.80
2019-04-30T15:50:51.107Z,13.80
2019-04-30T15:53:22.436Z,14.00
2019-04-30T15:55:50.929Z,13.90
2019-04-30T15:58:30.560Z,13.70
2019-04-30T16:00:59.985Z,13.80
2019-04-30T16:03:30.768Z,14.00
2019-04-30T16:05:59.331Z,13.80
2019-04-30T16:08:29.706Z,13.80
2019-04-30T16:11:19.345Z,13.80
2019-04-30T16:13:58.640Z,13.70
2019-04-30T16:16:29.027Z,14.00
2019-04-30T16:18:58.808Z,13.80
2019-04-30T16:21:29.195Z,13.90
2019-04-30T16:23:58.475Z,13.60
2019-04-30T16:26:28.991Z,13.50
2019-04-30T16:28:58.597Z,13.70
2019-04-30T16:31:29.094Z,13.80
2019-04-30T16:33:57.783Z,13.90
2019-04-30T16:36:26.324Z,13.80
2019-04-30T16:38:54.809Z,13.50
2019-04-30T16:41:31.510Z,13.50
2019-04-30T16:43:53.629Z,13.30
2019-04-30T16:46:22.192Z,13.20
2019-04-30T16:48:50.820Z,13.10
2019-04-30T16:51:19.456Z,13.30
2019-04-30T16:53:48.697Z,13.10
2019-04-30T16:56:18.589Z,13.10
2019-04-30T16:59:01.529Z,13.10
2019-04-30T17:01:32.304Z,13.10
2019-04-30T17:04:02.768Z,13.00
2019-04-30T17:06:50.670Z,13.00
2019-04-30T17:09:23.669Z,13.00
2019-04-30T17:11:59.849Z,13.00
2019-04-30T17:14:30.722Z,13.00
2019-04-30T17:16:59.804Z,12.80
2019-04-30T17:19:29.174Z,12.80
2019-04-30T17:21:57.941Z,12.80
2019-04-30T17:24:26.545Z,12.90
2019-04-30T17:26:55.117Z,12.90
2019-04-30T17:29:23.641Z,13.00
2019-04-30T17:31:52.200Z,13.10
2019-04-30T17:34:20.702Z,12.90
2019-04-30T17:36:49.685Z,13.00
2019-04-30T17:39:20.078Z,13.00
2019-04-30T17:41:49.332Z,13.00
2019-04-30T17:44:19.441Z,12.90
2019-04-30T17:46:49.779Z,12.80
2019-04-30T17:49:18.969Z,12.80
2019-04-30T17:51:49.073Z,12.80
2019-04-30T17:54:17.816Z,12.70
2019-04-30T17:56:46.732Z,12.70
2019-04-30T17:59:15.355Z,12.70
2019-04-30T18:01:45.686Z,12.70
2019-04-30T18:04:14.251Z,12.60
2019-04-30T18:06:42.852Z,12.50
2019-04-30T18:09:22.154Z,12.50
2019-04-30T18:11:50.697Z,12.50
2019-04-30T18:14:19.226Z,12.60
2019-04-30T18:16:48.674Z,12.50
2019-04-30T18:19:19.149Z,12.50
2019-04-30T18:21:49.282Z,12.70
2019-04-30T18:24:22.016Z,12.70
2019-04-30T18:26:55.170Z,12.70
2019-04-30T18:29:23.700Z,12.50
2019-04-30T18:31:52.295Z,12.50
2019-04-30T18:34:20.863Z,12.30
2019-04-30T18:36:51.244Z,12.40
2019-04-30T18:39:19.531Z,12.60
2019-04-30T18:41:48.039Z,12.40
2019-04-30T18:44:16.493Z,12.30
2019-04-30T18:46:45.003Z,12.40
2019-04-30T18:49:13.528Z,12.20
2019-04-30T18:51:43.654Z,12.20
2019-04-30T18:54:12.280Z,12.10
2019-04-30T18:56:40.783Z,12.20
2019-04-30T18:59:09.270Z,12.20
2019-04-30T19:01:37.831Z,12.10
2019-04-30T19:04:06.428Z,12.30
2019-04-30T19:06:35.012Z,12.40
2019-04-30T19:09:21.746Z,12.50
2019-04-30T19:12:00.788Z,12.20
2019-04-30T19:14:33.783Z,12.20
2019-04-30T19:17:14.451Z,12.20
2019-04-30T19:19:50.169Z,12.00
2019-04-30T19:22:20.141Z,11.90
2019-04-30T19:24:57.368Z,12.00
2019-04-30T19:27:18.974Z,12.20
2019-04-30T19:29:51.706Z,12.30
2019-04-30T19:32:19.760Z,12.40
2019-04-30T19:34:48.958Z,12.00
2019-04-30T19:37:19.580Z,12.00
2019-04-30T19:39:48.725Z,12.10
2019-04-30T19:42:18.738Z,12.30
2019-04-30T19:44:58.906Z,12.50
2019-04-30T19:47:19.099Z,12.30
2019-04-30T19:49:48.863Z,12.20
2019-04-30T19:52:19.214Z,12.20
2019-04-30T19:54:48.768Z,12.30
2019-04-30T19:57:19.111Z,12.20
2019-04-30T19:59:49.206Z,12.20
2019-04-30T20:02:19.094Z,12.20
2019-04-30T20:04:48.519Z,12.00
2019-04-30T20:07:17.158Z,12.00
2019-04-30T20:09:57.244Z,11.90
2019-04-30T20:12:15.974Z,12.00
2019-04-30T20:14:44.489Z,12.00
2019-04-30T20:17:13.955Z,11.70
2019-04-30T20:19:42.460Z,11.60
2019-04-30T20:22:11.167Z,11.50
2019-04-30T20:24:40.415Z,11.50
2019-04-30T20:27:10.182Z,11.60
2019-04-30T20:29:40.799Z,11.60
2019-04-30T20:32:09.214Z,11.70
2019-04-30T20:34:39.196Z,11.70
2019-04-30T20:37:08.647Z,11.60
2019-04-30T20:39:41.956Z,11.70
2019-04-30T20:42:10.478Z,11.80
2019-04-30T20:44:39.042Z,11.90
2019-04-30T20:47:08.942Z,11.80
2019-04-30T20:49:39.075Z,11.70
2019-04-30T20:52:07.871Z,11.50
2019-04-30T20:54:36.498Z,11.40
2019-04-30T20:57:05.117Z,11.40
2019-04-30T20:59:33.617Z,11.20
2019-04-30T21:02:02.274Z,11.40
2019-04-30T21:04:31.497Z,11.50
2019-04-30T21:07:00.062Z,11.50
2019-04-30T21:09:30.259Z,11.60
2019-04-30T21:11:58.861Z,11.40
2019-04-30T21:14:27.392Z,11.40
2019-04-30T21:16:55.943Z,11.50
2019-04-30T21:19:24.453Z,11.60
2019-04-30T21:21:53.009Z,11.60
2019-04-30T21:24:21.666Z,11.50
2019-04-30T21:26:53.004Z,11.50
2019-04-30T21:29:22.200Z,11.50
2019-04-30T21:31:52.421Z,11.50
2019-04-30T21:34:25.310Z,11.50
2019-04-30T21:36:55.545Z,11.50
2019-04-30T21:39:24.092Z,11.50
2019-04-30T21:41:52.593Z,11.60
2019-04-30T21:44:21.183Z,11.50
2019-04-30T21:46:49.699Z,11.60
2019-04-30T21:49:18.232Z,11.50
2019-04-30T21:51:46.743Z,11.40
2019-04-30T21:54:15.436Z,11.60
2019-04-30T21:56:44.002Z,11.50
2019-04-30T21:59:23.833Z,11.40
2019-04-30T22:01:42.957Z,11.40
2019-04-30T22:04:11.599Z,11.50
2019-04-30T22:06:40.092Z,11.50
2019-04-30T22:09:10.454Z,11.40
2019-04-30T22:11:39.455Z,11.50
2019-04-30T22:14:08.196Z,11.30
2019-04-30T22:16:36.777Z,11.20
2019-04-30T22:19:05.355Z,11.20
2019-04-30T22:21:33.862Z,11.30
2019-04-30T22:24:02.427Z,11.30
2019-04-30T22:26:30.973Z,11.30
2019-04-30T22:28:59.476Z,11.20
2019-04-30T22:31:29.602Z,11.40
2019-04-30T22:33:58.972Z,11.30
2019-04-30T22:36:38.815Z,11.30
2019-04-30T22:39:12.026Z,11.30
2019-04-30T22:41:40.352Z,11.20
2019-04-30T22:44:08.932Z,11.20
2019-04-30T22:46:39.229Z,11.00
2019-04-30T22:49:07.692Z,11.10
2019-04-30T22:51:36.244Z,11.10
2019-04-30T22:54:04.961Z,11.00
2019-04-30T22:56:33.631Z,11.10
2019-04-30T22:59:02.085Z,11.10
2019-04-30T23:01:39.846Z,11.00
2019-04-30T23:04:10.262Z,11.00
2019-04-30T23:06:38.833Z,10.90
2019-04-30T23:09:10.749Z,10.90
2019-04-30T23:11:39.664Z,10.90
2019-04-30T23:14:09.198Z,10.90
2019-04-30T23:16:37.709Z,10.90
2019-04-30T23:19:06.205Z,10.90
2019-04-30T23:21:34.692Z,10.80
2019-04-30T23:24:03.259Z,10.80
2019-04-30T23:26:31.804Z,10.70
2019-04-30T23:29:02.235Z,10.70
2019-04-30T23:31:30.685Z,10.70
2019-04-30T23:33:59.253Z,10.70
2019-04-30T23:36:27.834Z,10.60
2019-04-30T23:38:56.384Z,10.60
2019-04-30T23:41:24.975Z,10.60
2019-04-30T23:43:55.017Z,10.50
2019-04-30T23:46:23.749Z,10.50
2019-04-30T23:48:52.302Z,10.50
2019-04-30T23:51:20.850Z,10.50
2019-04-30T23:53:49.368Z,10.40
2019-04-30T23:56:17.914Z,10.40
2019-04-30T23:58:46.402Z,10.40
